createdAt,value
2018-04-18T00:01:54.952Z,18.37
2018-04-18T00:04:22.490Z,25.37
2018-04-18T00:06:50.804Z,23.90
2018-04-18T00:09:18.461Z,17.67
2018-04-18T00:11:45.991Z,19.63
2018-04-18T00:14:24.546Z,16.33
2018-04-18T00:19:31.899Z,21.50
2018-04-18T00:21:59.423Z,17.90
2018-04-18T00:24:27.001Z,17.62
2018-04-18T00:26:56.422Z,18.05
2018-04-18T00:29:24.767Z,17.20
2018-04-18T00:31:52.288Z,20.70
2018-04-18T00:34:19.862Z,17.75
2018-04-18T00:36:47.383Z,18.03
2018-04-18T00:39:15.518Z,18.85
2018-04-18T00:41:43.375Z,17.30
2018-04-18T00:44:10.902Z,16.40
2018-04-18T00:46:38.427Z,20.50
2018-04-18T00:49:06.945Z,20.30
2018-04-18T00:51:34.470Z,17.47
2018-04-18T00:54:01.995Z,19.80
2018-04-18T00:56:29.534Z,19.33
2018-04-18T00:58:57.813Z,19.40
2018-04-18T01:01:25.322Z,22.90
2018-04-18T01:03:53.382Z,20.10
2018-04-18T01:06:21.753Z,20.00
2018-04-18T01:08:49.315Z,18.57
2018-04-18T01:11:16.874Z,19.33
2018-04-18T01:13:44.546Z,19.57
2018-04-18T01:16:12.088Z,21.33
2018-04-18T01:18:39.643Z,22.67
2018-04-18T01:21:07.170Z,19.07
2018-04-18T01:23:34.806Z,19.40
2018-04-18T01:26:02.943Z,19.90
2018-04-18T01:28:30.510Z,20.55
2018-04-18T01:30:58.036Z,20.07
2018-04-18T01:33:25.602Z,19.77
2018-04-18T01:35:53.152Z,20.60
2018-04-18T01:38:20.682Z,21.00
2018-04-18T01:40:48.259Z,28.20
2018-04-18T01:43:16.396Z,20.70
2018-04-18T01:45:44.675Z,24.57
2018-04-18T01:48:14.222Z,28.10
2018-04-18T01:50:42.743Z,31.40
2018-04-18T01:53:10.254Z,31.40
2018-04-18T01:55:37.795Z,28.80
2018-04-18T01:58:05.337Z,31.10
2018-04-18T02:00:33.625Z,24.67
2018-04-18T02:03:01.175Z,21.83
2018-04-18T02:05:28.696Z,22.23
2018-04-18T02:07:56.206Z,20.90
2018-04-18T02:10:24.091Z,21.80
2018-04-18T02:12:51.607Z,25.83
2018-04-18T02:15:19.916Z,22.00
2018-04-18T02:17:47.495Z,24.67
2018-04-18T02:20:15.568Z,27.33
2018-04-18T02:22:43.090Z,27.77
2018-04-18T02:25:10.639Z,22.70
2018-04-18T02:27:38.154Z,28.60
2018-04-18T02:30:05.755Z,25.77
2018-04-18T02:32:33.854Z,25.65
2018-04-18T02:35:01.370Z,27.23
2018-04-18T02:37:29.652Z,27.33
2018-04-18T02:39:57.958Z,28.77
2018-04-18T02:42:25.493Z,32.50
2018-04-18T02:44:53.042Z,27.87
2018-04-18T02:47:21.365Z,26.07
2018-04-18T02:49:48.892Z,22.20
2018-04-18T02:52:17.764Z,23.63
2018-04-18T02:54:46.330Z,26.97
2018-04-18T02:57:16.274Z,25.25
2018-04-18T02:59:44.554Z,24.60
2018-04-18T03:02:12.106Z,21.83
2018-04-18T03:04:39.644Z,23.73
2018-04-18T03:07:07.163Z,23.23
2018-04-18T03:09:34.732Z,24.63
2018-04-18T03:12:02.372Z,23.97
2018-04-18T03:14:29.920Z,24.73
2018-04-18T03:16:58.216Z,22.80
2018-04-18T03:19:25.732Z,21.30
2018-04-18T03:21:54.016Z,19.80
2018-04-18T03:24:21.606Z,19.52
2018-04-18T03:26:49.150Z,19.53
2018-04-18T03:29:16.665Z,20.70
2018-04-18T03:31:44.256Z,24.40
2018-04-18T03:34:11.791Z,20.60
2018-04-18T03:36:39.315Z,21.30
2018-04-18T03:39:07.420Z,21.33
2018-04-18T03:41:35.823Z,24.50
2018-04-18T03:44:03.339Z,25.90
2018-04-18T03:46:30.890Z,23.00
2018-04-18T03:48:58.482Z,24.30
2018-04-18T03:51:26.762Z,24.70
2018-04-18T03:53:55.366Z,25.33
2018-04-18T03:56:22.883Z,22.50
2018-04-18T03:58:50.410Z,26.50
2018-04-18T04:01:18.361Z,21.50
2018-04-18T04:03:45.882Z,21.77
2018-04-18T04:06:14.500Z,39.08
2018-04-18T04:08:42.075Z,20.73
2018-04-18T04:11:09.596Z,17.92
2018-04-18T04:13:37.900Z,17.70
2018-04-18T04:16:05.472Z,19.45
2018-04-18T04:18:44.846Z,19.50
2018-04-18T04:21:24.735Z,23.57
2018-04-18T04:24:03.964Z,20.73
2018-04-18T04:26:32.118Z,24.37
2018-04-18T04:29:00.477Z,20.23
2018-04-18T04:31:28.034Z,27.90
2018-04-18T04:33:55.572Z,30.53
2018-04-18T04:36:23.119Z,20.57
2018-04-18T04:38:50.690Z,25.90
2018-04-18T04:41:18.280Z,40.57
2018-04-18T04:43:46.587Z,28.23
2018-04-18T04:46:25.727Z,27.10
2018-04-18T04:51:53.254Z,24.00
2018-04-18T04:54:20.982Z,25.23
2018-04-18T04:56:48.500Z,19.10
2018-04-18T04:59:17.825Z,21.20
2018-04-18T05:01:45.488Z,24.25
2018-04-18T05:04:14.644Z,20.92
2018-04-18T05:06:42.231Z,20.70
2018-04-18T05:09:09.753Z,28.27
2018-04-18T05:11:37.279Z,20.00
2018-04-18T05:14:04.822Z,20.97
2018-04-18T05:16:32.355Z,31.40
2018-04-18T05:19:00.631Z,33.23
2018-04-18T05:21:28.230Z,19.67
2018-04-18T05:23:55.768Z,29.57
2018-04-18T05:26:23.314Z,24.43
2018-04-18T05:28:50.863Z,23.03
2018-04-18T05:31:18.404Z,24.63
2018-04-18T05:33:46.683Z,24.37
2018-04-18T05:36:15.594Z,26.67
2018-04-18T05:38:43.356Z,27.50
2018-04-18T05:41:11.856Z,30.17
2018-04-18T05:43:40.046Z,21.97
2018-04-18T05:46:07.641Z,27.73
2018-04-18T05:48:35.209Z,26.30
2018-04-18T05:51:02.783Z,20.53
2018-04-18T05:53:30.802Z,23.07
2018-04-18T05:55:59.026Z,23.60
2018-04-18T05:58:26.598Z,29.23
2018-04-18T06:00:54.120Z,25.60
2018-04-18T06:03:21.700Z,27.07
2018-04-18T06:05:50.419Z,26.00
2018-04-18T06:08:17.954Z,26.57
2018-04-18T06:10:45.482Z,25.27
2018-04-18T06:13:14.586Z,32.53
2018-04-18T06:15:42.115Z,31.33
2018-04-18T06:18:09.679Z,34.93
2018-04-18T06:20:37.222Z,28.53
2018-04-18T06:23:04.738Z,32.83
2018-04-18T06:25:32.340Z,37.67
2018-04-18T06:28:00.195Z,24.23
2018-04-18T06:30:27.730Z,25.60
2018-04-18T06:32:55.250Z,27.53
2018-04-18T06:35:22.812Z,20.62
2018-04-18T06:37:50.330Z,17.23
2018-04-18T06:40:17.880Z,23.20
2018-04-18T06:42:45.436Z,16.13
2018-04-18T06:45:25.507Z,19.95
2018-04-18T06:50:23.579Z,14.60
2018-04-18T06:52:51.114Z,16.50
2018-04-18T06:55:19.054Z,13.85
2018-04-18T06:57:47.330Z,15.37
2018-04-18T07:00:16.454Z,12.84
2018-04-18T07:02:43.990Z,11.93
2018-04-18T07:05:12.387Z,12.00
2018-04-18T07:07:39.917Z,10.93
2018-04-18T07:10:07.461Z,11.43
2018-04-18T07:12:35.336Z,10.10
2018-04-18T07:15:02.869Z,9.60
2018-04-18T07:17:30.416Z,10.00
2018-04-18T07:19:58.154Z,9.27
2018-04-18T07:22:25.727Z,9.50
2018-04-18T07:24:53.269Z,11.47
2018-04-18T07:27:20.861Z,9.30
2018-04-18T07:29:48.413Z,8.90
2018-04-18T07:32:16.534Z,10.80
2018-04-18T07:34:45.033Z,8.57
2018-04-18T07:37:14.232Z,8.50
2018-04-18T07:39:41.791Z,8.93
2018-04-18T07:42:10.107Z,9.17
2018-04-18T07:44:37.664Z,9.57
2018-04-18T07:47:05.178Z,10.17
2018-04-18T07:49:33.503Z,8.63
2018-04-18T07:52:01.098Z,8.43
2018-04-18T07:54:28.623Z,7.97
2018-04-18T07:56:56.544Z,7.67
2018-04-18T07:59:24.667Z,9.27
2018-04-18T08:01:52.218Z,7.90
2018-04-18T08:04:19.776Z,7.68
2018-04-18T08:06:47.294Z,8.20
2018-04-18T08:09:16.136Z,8.50
2018-04-18T08:11:43.732Z,7.57
2018-04-18T08:14:12.074Z,8.03
2018-04-18T08:16:39.610Z,11.53
2018-04-18T08:19:08.611Z,8.60
2018-04-18T08:21:36.142Z,8.20
2018-04-18T08:24:03.688Z,8.40
2018-04-18T08:26:32.085Z,7.80
2018-04-18T08:29:00.079Z,8.57
2018-04-18T08:31:27.627Z,7.32
2018-04-18T08:33:55.215Z,8.83
2018-04-18T08:36:22.744Z,8.86
2018-04-18T08:38:50.278Z,8.30
2018-04-18T08:41:19.516Z,11.23
2018-04-18T08:43:47.031Z,8.63
2018-04-18T08:46:25.803Z,8.23
2018-04-18T08:48:53.375Z,7.83
2018-04-18T08:51:20.909Z,9.67
2018-04-18T08:53:48.461Z,9.70
2018-04-18T08:56:16.501Z,10.00
2018-04-18T08:58:44.075Z,10.97
2018-04-18T09:01:12.868Z,10.60
2018-04-18T09:03:40.412Z,9.80
2018-04-18T09:06:07.945Z,10.30
2018-04-18T09:08:35.506Z,10.90
2018-04-18T09:11:03.806Z,12.20
2018-04-18T09:13:31.337Z,10.37
2018-04-18T09:15:58.903Z,10.67
2018-04-18T09:18:26.767Z,10.98
2018-04-18T09:20:54.289Z,10.37
2018-04-18T09:23:22.372Z,12.27
2018-04-18T09:25:49.932Z,9.07
2018-04-18T09:28:17.471Z,9.60
2018-04-18T09:30:45.040Z,10.77
2018-04-18T09:33:13.482Z,12.10
2018-04-18T09:35:41.953Z,13.27
2018-04-18T09:38:09.592Z,9.97
2018-04-18T09:40:37.880Z,7.57
2018-04-18T09:43:06.285Z,8.23
2018-04-18T09:45:34.180Z,8.25
2018-04-18T09:48:01.714Z,8.33
2018-04-18T09:50:29.234Z,8.07
2018-04-18T09:52:57.178Z,8.93
2018-04-18T09:55:24.715Z,8.10
2018-04-18T09:57:52.252Z,6.70
2018-04-18T10:00:19.845Z,11.10
2018-04-18T10:02:54.066Z,7.10
2018-04-18T10:05:22.005Z,8.73
2018-04-18T10:07:49.557Z,9.60
2018-04-18T10:10:17.125Z,8.17
2018-04-18T10:12:45.477Z,9.83
2018-04-18T10:15:23.679Z,9.95
2018-04-18T10:22:14.057Z,10.37
2018-04-18T10:24:41.606Z,11.27
2018-04-18T10:27:09.168Z,12.80
2018-04-18T10:29:36.799Z,13.20
2018-04-18T10:32:04.328Z,13.70
2018-04-18T10:34:32.676Z,17.73
2018-04-18T10:37:00.279Z,14.50
2018-04-18T10:39:27.840Z,12.47
2018-04-18T10:41:55.382Z,12.73
2018-04-18T10:44:24.097Z,12.73
2018-04-18T10:46:52.099Z,19.50
2018-04-18T10:49:19.671Z,10.93
2018-04-18T10:51:49.688Z,11.50
2018-04-18T10:54:17.230Z,10.77
2018-04-18T10:56:44.819Z,13.53
2018-04-18T10:59:12.373Z,12.47
2018-04-18T11:01:39.903Z,20.33
2018-04-18T11:04:08.194Z,13.27
2018-04-18T11:06:36.299Z,14.43
2018-04-18T11:09:03.840Z,12.53
2018-04-18T11:11:31.497Z,17.43
2018-04-18T11:13:59.065Z,11.40
2018-04-18T11:16:26.948Z,10.45
2018-04-18T11:18:54.528Z,10.07
2018-04-18T11:21:22.111Z,11.60
2018-04-18T11:23:49.667Z,9.73
2018-04-18T11:26:17.223Z,11.13
2018-04-18T11:28:44.794Z,9.00
2018-04-18T11:31:12.398Z,13.40
2018-04-18T11:33:39.989Z,8.90
2018-04-18T11:36:07.548Z,9.63
2018-04-18T11:38:35.080Z,12.10
2018-04-18T11:41:02.628Z,11.10
2018-04-18T11:43:31.007Z,11.87
2018-04-18T11:45:58.559Z,11.57
2018-04-18T11:48:26.086Z,9.50
2018-04-18T11:50:53.730Z,11.82
2018-04-18T11:53:21.271Z,10.13
2018-04-18T11:55:48.862Z,10.90
2018-04-18T11:58:16.490Z,11.13
2018-04-18T12:00:44.028Z,14.13
2018-04-18T12:03:11.559Z,16.95
2018-04-18T12:05:40.020Z,19.33
2018-04-18T12:08:09.456Z,15.55
2018-04-18T12:10:37.829Z,15.43
2018-04-18T12:13:06.072Z,19.07
2018-04-18T12:15:33.608Z,15.55
2018-04-18T12:18:01.999Z,14.83
2018-04-18T12:20:29.787Z,13.57
2018-04-18T12:22:57.303Z,14.80
2018-04-18T12:25:24.914Z,17.12
2018-04-18T12:27:52.511Z,14.37
2018-04-18T12:30:20.800Z,23.35
2018-04-18T12:32:48.329Z,18.60
2018-04-18T12:35:20.339Z,19.20
2018-04-18T12:37:47.880Z,21.63
2018-04-18T12:40:18.244Z,17.15
2018-04-18T12:42:45.814Z,13.93
2018-04-18T12:45:25.242Z,15.10
2018-04-18T12:50:29.323Z,17.60
2018-04-18T12:52:56.855Z,16.17
2018-04-18T12:55:25.143Z,16.83
2018-04-18T12:57:53.462Z,16.70
2018-04-18T13:00:21.079Z,18.30
2018-04-18T13:02:49.420Z,17.12
2018-04-18T13:05:16.999Z,16.30
2018-04-18T13:07:45.596Z,20.73
2018-04-18T13:10:25.902Z,19.43
2018-04-18T13:15:46.792Z,17.30
2018-04-18T13:18:34.228Z,26.62
2018-04-18T13:36:22.816Z,18.70
2018-04-18T13:38:50.347Z,20.17
2018-04-18T13:41:18.502Z,18.63
2018-04-18T13:43:48.199Z,16.30
2018-04-18T13:46:27.343Z,18.50
2018-04-18T13:48:54.928Z,17.87
2018-04-18T13:51:22.705Z,17.30
2018-04-18T13:53:50.261Z,14.33
2018-04-18T13:56:18.487Z,18.50
2018-04-18T13:58:47.822Z,14.50
2018-04-18T14:04:19.704Z,15.90
2018-04-18T14:06:47.275Z,12.37
2018-04-18T14:09:15.903Z,16.65
2018-04-18T14:11:49.515Z,19.34
2018-04-18T14:14:17.088Z,14.50
2018-04-18T14:16:44.627Z,15.07
2018-04-18T14:19:13.897Z,13.40
2018-04-18T14:21:41.463Z,11.45
2018-04-18T14:24:09.298Z,18.03
2018-04-18T14:26:36.871Z,12.77
2018-04-18T14:29:04.416Z,12.27
2018-04-18T14:31:32.077Z,15.05
2018-04-18T14:33:59.684Z,11.77
2018-04-18T14:36:29.055Z,21.97
2018-04-18T14:38:56.598Z,15.60
2018-04-18T14:41:24.218Z,13.57
2018-04-18T14:43:51.793Z,15.40
2018-04-18T14:46:19.334Z,14.20
2018-04-18T14:48:47.006Z,14.23
2018-04-18T14:51:15.666Z,14.05
2018-04-18T14:53:43.963Z,15.07
2018-04-18T14:56:12.172Z,18.62
2018-04-18T14:58:39.763Z,14.90
2018-04-18T15:01:07.308Z,14.10
2018-04-18T15:03:35.057Z,16.57
2018-04-18T15:06:02.627Z,18.10
2018-04-18T15:08:32.045Z,19.87
2018-04-18T15:11:00.365Z,21.45
2018-04-18T15:13:34.669Z,16.05
2018-04-18T15:18:51.010Z,14.53
2018-04-18T15:21:18.559Z,14.68
2018-04-18T15:23:46.090Z,16.87
2018-04-18T15:26:14.644Z,17.63
2018-04-18T15:28:42.194Z,17.40
2018-04-18T15:31:09.757Z,21.80
2018-04-18T15:33:37.272Z,20.27
2018-04-18T15:36:05.165Z,16.53
2018-04-18T15:38:32.818Z,18.45
2018-04-18T15:41:00.379Z,17.67
2018-04-18T15:43:28.131Z,19.23
2018-04-18T15:45:55.752Z,17.30
2018-04-18T15:48:24.132Z,20.35
2018-04-18T15:50:51.687Z,16.60
2018-04-18T15:53:19.212Z,18.03
2018-04-18T15:55:46.774Z,16.97
2018-04-18T15:58:26.218Z,21.20
2018-04-18T16:03:52.056Z,19.80
2018-04-18T16:06:19.588Z,15.05
2018-04-18T16:08:47.128Z,15.63
2018-04-18T16:11:16.280Z,18.02
2018-04-18T16:13:43.858Z,16.10
2018-04-18T16:16:13.186Z,14.40
2018-04-18T16:18:41.437Z,17.67
2018-04-18T16:21:09.740Z,19.33
2018-04-18T16:23:37.359Z,16.33
2018-04-18T16:26:04.912Z,16.67
2018-04-18T16:28:32.445Z,14.77
2018-04-18T16:31:00.056Z,14.40
2018-04-18T16:33:27.656Z,15.10
2018-04-18T16:35:55.183Z,14.50
2018-04-18T16:38:24.063Z,20.10
2018-04-18T16:40:52.610Z,16.50
2018-04-18T16:43:20.160Z,16.90
2018-04-18T16:45:47.699Z,13.90
2018-04-18T16:48:15.544Z,19.25
2018-04-18T16:50:43.072Z,16.67
2018-04-18T16:53:11.161Z,17.13
2018-04-18T16:55:39.113Z,16.93
2018-04-18T16:58:06.754Z,18.20
2018-04-18T17:00:34.308Z,22.07
2018-04-18T17:03:02.177Z,12.50
2018-04-18T17:05:29.727Z,15.18
2018-04-18T17:07:57.273Z,17.70
2018-04-18T17:10:24.840Z,13.90
2018-04-18T17:12:52.881Z,15.17
2018-04-18T17:15:20.436Z,16.30
2018-04-18T17:17:48.015Z,14.30
2018-04-18T17:20:15.673Z,20.83
2018-04-18T17:22:43.206Z,16.97
2018-04-18T17:25:11.022Z,15.73
2018-04-18T17:27:39.420Z,16.83
2018-04-18T17:30:06.992Z,21.07
2018-04-18T17:32:35.371Z,17.48
2018-04-18T17:35:02.916Z,15.93
2018-04-18T17:37:31.231Z,15.95
2018-04-18T17:39:58.782Z,28.57
2018-04-18T17:42:26.328Z,23.87
2018-04-18T17:44:54.614Z,18.87
2018-04-18T17:47:22.315Z,19.90
2018-04-18T17:49:49.864Z,17.10
2018-04-18T17:52:17.424Z,25.03
2018-04-18T17:54:44.976Z,19.77
2018-04-18T17:57:12.544Z,17.63
2018-04-18T17:59:40.123Z,19.33
2018-04-18T18:02:08.963Z,34.63
2018-04-18T18:04:37.343Z,23.60
2018-04-18T18:07:04.878Z,21.33
2018-04-18T18:09:32.461Z,19.90
2018-04-18T18:12:00.023Z,22.37
2018-04-18T18:14:33.534Z,32.30
2018-04-18T18:17:01.156Z,21.93
2018-04-18T18:19:30.034Z,28.83
2018-04-18T18:21:58.383Z,19.77
2018-04-18T18:24:25.913Z,21.27
2018-04-18T18:26:53.440Z,22.60
2018-04-18T18:29:22.143Z,27.10
2018-04-18T18:31:50.438Z,22.83
2018-04-18T18:34:17.959Z,20.70
2018-04-18T18:36:45.523Z,23.40
2018-04-18T18:39:24.503Z,22.25
2018-04-18T18:45:11.439Z,21.83
2018-04-18T18:47:38.972Z,31.92
2018-04-18T18:50:06.576Z,27.33
2018-04-18T18:52:34.111Z,28.83
2018-04-18T18:55:01.693Z,21.33
2018-04-18T18:57:29.210Z,22.40
2018-04-18T18:59:56.795Z,21.10
2018-04-18T19:02:24.303Z,22.53
2018-04-18T19:04:51.885Z,22.75
2018-04-18T19:07:19.517Z,23.70
2018-04-18T19:09:47.870Z,35.37
2018-04-18T19:12:16.299Z,23.25
2018-04-18T19:14:44.498Z,23.17
2018-04-18T19:17:12.038Z,30.63
2018-04-18T19:19:39.567Z,27.45
2018-04-18T19:22:07.179Z,25.30
2018-04-18T19:24:34.720Z,25.37
2018-04-18T19:27:02.255Z,29.00
2018-04-18T19:29:29.843Z,33.43
2018-04-18T19:32:02.575Z,29.83
2018-04-18T19:34:30.143Z,30.30
2018-04-18T19:36:57.728Z,24.40
2018-04-18T19:39:25.259Z,32.70
2018-04-18T19:41:52.815Z,24.57
2018-04-18T19:44:21.124Z,24.30
2018-04-18T19:46:48.653Z,22.40
2018-04-18T19:49:16.461Z,31.77
2018-04-18T19:51:44.544Z,23.73
2018-04-18T19:54:12.084Z,24.60
2018-04-18T19:56:39.647Z,24.53
2018-04-18T19:59:07.192Z,32.90
2018-04-18T20:01:34.768Z,32.90
2018-04-18T20:04:02.533Z,23.30
2018-04-18T20:06:30.451Z,28.42
2018-04-18T20:08:58.014Z,27.80
2018-04-18T20:11:25.884Z,28.07
2018-04-18T20:13:53.565Z,24.37
2018-04-18T20:16:22.245Z,24.33
2018-04-18T20:18:49.858Z,27.37
2018-04-18T20:21:17.414Z,30.03
2018-04-18T20:23:45.008Z,29.83
2018-04-18T20:26:12.582Z,25.20
2018-04-18T20:28:40.873Z,27.50
2018-04-18T20:31:08.426Z,32.13
2018-04-18T20:33:36.017Z,27.03
2018-04-18T20:36:03.563Z,23.92
2018-04-18T20:38:31.097Z,26.55
2018-04-18T20:40:58.672Z,33.23
2018-04-18T20:43:26.208Z,28.10
2018-04-18T20:45:54.499Z,28.47
2018-04-18T20:48:22.206Z,30.90
2018-04-18T20:50:49.763Z,33.40
2018-04-18T20:53:17.765Z,34.63
2018-04-18T20:55:46.150Z,25.70
2018-04-18T20:58:15.380Z,24.05
2018-04-18T21:00:42.942Z,27.00
2018-04-18T21:03:10.491Z,31.90
2018-04-18T21:05:38.063Z,28.83
2018-04-18T21:08:06.360Z,30.90
2018-04-18T21:10:34.015Z,26.73
2018-04-18T21:13:01.539Z,29.77
2018-04-18T21:15:29.222Z,28.63
2018-04-18T21:17:58.496Z,24.80
2018-04-18T21:20:26.066Z,23.40
2018-04-18T21:22:53.744Z,21.77
2018-04-18T21:25:21.284Z,20.54
2018-04-18T21:27:49.031Z,25.20
2018-04-18T21:30:16.589Z,21.00
2018-04-18T21:32:44.898Z,21.77
2018-04-18T21:35:12.418Z,20.33
2018-04-18T21:37:40.011Z,26.07
2018-04-18T21:40:07.590Z,22.00
2018-04-18T21:42:35.888Z,21.60
2018-04-18T21:45:03.442Z,20.62
2018-04-18T21:47:31.038Z,25.40
2018-04-18T21:49:59.529Z,23.62
2018-04-18T21:52:27.092Z,22.37
2018-04-18T21:54:54.679Z,25.13
2018-04-18T21:57:22.239Z,26.62
2018-04-18T21:59:49.768Z,22.53
2018-04-18T22:02:17.602Z,26.43
2018-04-18T22:04:45.122Z,25.73
2018-04-18T22:07:13.719Z,24.40
2018-04-18T22:09:42.058Z,27.53
2018-04-18T22:12:09.575Z,24.80
2018-04-18T22:14:37.099Z,20.47
2018-04-18T22:17:04.784Z,23.77
2018-04-18T22:19:33.097Z,26.80
2018-04-18T22:22:00.731Z,25.40
2018-04-18T22:24:28.310Z,24.50
2018-04-18T22:26:56.720Z,23.70
2018-04-18T22:29:24.375Z,24.50
2018-04-18T22:31:51.930Z,24.47
2018-04-18T22:34:19.450Z,23.40
2018-04-18T22:36:46.990Z,26.07
2018-04-18T22:39:15.597Z,26.85
2018-04-18T22:41:43.134Z,36.37
2018-04-18T22:44:10.674Z,24.00
2018-04-18T22:46:38.622Z,23.33
2018-04-18T22:49:06.140Z,26.83
2018-04-18T22:51:34.421Z,22.77
2018-04-18T22:54:02.747Z,23.30
2018-04-18T22:56:30.498Z,23.50
2018-04-18T22:58:58.202Z,22.10
2018-04-18T23:01:25.757Z,25.87
2018-04-18T23:03:53.277Z,25.97
2018-04-18T23:06:21.034Z,28.50
2018-04-18T23:08:48.885Z,29.12
2018-04-18T23:11:16.525Z,24.67
2018-04-18T23:13:44.828Z,24.83
2018-04-18T23:16:12.389Z,22.57
2018-04-18T23:18:39.916Z,29.63
2018-04-18T23:21:08.725Z,22.92
2018-04-18T23:23:36.295Z,23.50
2018-04-18T23:26:03.814Z,22.70
2018-04-18T23:28:31.360Z,26.83
2018-04-18T23:30:59.711Z,23.60
2018-04-18T23:33:27.247Z,24.40
2018-04-18T23:35:54.769Z,27.47
2018-04-18T23:38:22.339Z,27.90
2018-04-18T23:40:50.619Z,30.60
2018-04-18T23:43:18.901Z,27.00
2018-04-18T23:45:47.211Z,28.58
2018-04-18T23:48:16.287Z,28.83
2018-04-18T23:50:43.830Z,27.83
2018-04-18T23:53:11.719Z,30.17
2018-04-18T23:55:39.243Z,30.97
2018-04-18T23:58:07.555Z,34.40
